createdAt,value
2019-03-11T00:00:01.344Z,100927.59
2019-03-11T00:02:34.473Z,100920.97
2019-03-11T00:05:05.825Z,100919.48
2019-03-11T00:07:36.023Z,100913.50
2019-03-11T00:10:07.651Z,100915.52
2019-03-11T00:12:37.828Z,100909.28
2019-03-11T00:15:09.835Z,100911.70
2019-03-11T00:17:40.055Z,100925.49
2019-03-11T00:20:11.947Z,100918.61
2019-03-11T00:22:42.094Z,100941.07
2019-03-11T00:25:12.822Z,100945.08
2019-03-11T00:27:42.974Z,100937.70
2019-03-11T00:30:13.358Z,100977.81
2019-03-11T00:32:43.873Z,100964.25
2019-03-11T00:35:14.517Z,100979.08
2019-03-11T00:37:44.853Z,100966.11
2019-03-11T00:40:15.538Z,100977.52
2019-03-11T00:42:45.688Z,100972.52
2019-03-11T00:45:15.941Z,100971.57
2019-03-11T00:47:46.510Z,100981.34
2019-03-11T00:50:16.653Z,100961.95
2019-03-11T00:52:48.436Z,100962.31
2019-03-11T00:55:18.580Z,100958.50
2019-03-11T00:57:55.081Z,100968.22
2019-03-11T01:00:31.677Z,100965.93
2019-03-11T01:03:03.128Z,100959.86
2019-03-11T01:05:33.991Z,100956.90
2019-03-11T01:08:05.579Z,100954.81
2019-03-11T01:10:36.282Z,100951.32
2019-03-11T01:13:06.527Z,100949.77
2019-03-11T01:15:36.684Z,100952.42
2019-03-11T01:18:06.840Z,100947.16
2019-03-11T01:20:37.405Z,100942.34
2019-03-11T01:23:09.526Z,100950.64
2019-03-11T01:25:42.556Z,100938.84
2019-03-11T01:28:12.757Z,100941.68
2019-03-11T01:30:42.938Z,100931.37
2019-03-11T01:33:13.097Z,100923.52
2019-03-11T01:35:43.227Z,100919.59
2019-03-11T01:38:14.159Z,100924.83
2019-03-11T01:40:44.807Z,100908.63
2019-03-11T01:43:14.947Z,100892.23
2019-03-11T01:45:45.160Z,100888.33
2019-03-11T01:48:15.290Z,100896.23
2019-03-11T01:50:45.790Z,100900.38
2019-03-11T01:53:18.984Z,100895.48
2019-03-11T01:55:50.709Z,100899.16
2019-03-11T01:58:21.951Z,100907.36
2019-03-11T02:00:52.658Z,100904.84
2019-03-11T02:03:24.351Z,100909.20
2019-03-11T02:05:55.536Z,100899.61
2019-03-11T02:08:28.349Z,100898.62
2019-03-11T02:10:58.494Z,100893.29
2019-03-11T02:13:28.653Z,100897.78
2019-03-11T02:15:58.828Z,100896.80
2019-03-11T02:18:29.422Z,100894.50
2019-03-11T02:20:59.594Z,100894.14
2019-03-11T02:23:31.429Z,100896.34
2019-03-11T02:26:01.942Z,100891.27
2019-03-11T02:28:32.493Z,100902.43
2019-03-11T02:31:02.792Z,100906.86
2019-03-11T02:33:33.401Z,100900.88
2019-03-11T02:36:03.689Z,100903.85
2019-03-11T02:38:35.363Z,100891.66
2019-03-11T02:41:05.513Z,100880.94
2019-03-11T02:43:35.826Z,100888.36
2019-03-11T02:46:06.135Z,100881.77
2019-03-11T02:48:36.769Z,100884.66
2019-03-11T02:51:06.920Z,100892.00
2019-03-11T02:53:39.123Z,100893.79
2019-03-11T02:56:09.282Z,100881.85
2019-03-11T02:58:39.932Z,100882.33
2019-03-11T03:01:47.493Z,100893.88
2019-03-11T03:04:23.135Z,100883.13
2019-03-11T03:06:53.263Z,100881.34
2019-03-11T03:09:23.493Z,100886.29
2019-03-11T03:11:55.029Z,100885.10
2019-03-11T03:14:25.204Z,100881.43
2019-03-11T03:16:55.330Z,100880.66
2019-03-11T03:19:25.537Z,100879.12
2019-03-11T03:21:56.115Z,100880.80
2019-03-11T03:24:26.691Z,100884.61
2019-03-11T03:26:56.822Z,100882.34
2019-03-11T03:29:28.298Z,100885.06
2019-03-11T03:31:58.947Z,100883.41
2019-03-11T03:34:29.138Z,100886.55
2019-03-11T03:36:59.284Z,100880.45
2019-03-11T03:39:29.447Z,100883.20
2019-03-11T03:41:59.746Z,100889.38
2019-03-11T03:44:30.387Z,100893.34
2019-03-11T03:47:01.375Z,100901.10
2019-03-11T03:49:31.953Z,100893.66
2019-03-11T03:52:02.103Z,100903.74
2019-03-11T03:54:34.360Z,100898.14
2019-03-11T03:57:04.524Z,100895.42
2019-03-11T03:59:35.432Z,100892.83
2019-03-11T04:02:05.574Z,100903.95
2019-03-11T04:04:37.325Z,100908.20
2019-03-11T04:07:07.458Z,100918.81
2019-03-11T04:09:37.617Z,100913.62
2019-03-11T04:12:07.816Z,100906.56
2019-03-11T04:14:38.386Z,100898.02
2019-03-11T04:17:08.533Z,100912.20
2019-03-11T04:19:39.675Z,100913.13
2019-03-11T04:22:09.913Z,100915.70
2019-03-11T04:24:42.059Z,100914.34
2019-03-11T04:27:12.963Z,100917.13
2019-03-11T04:29:43.130Z,100920.05
2019-03-11T04:32:13.263Z,100923.12
2019-03-11T04:34:43.441Z,100926.28
2019-03-11T04:37:14.104Z,100928.34
2019-03-11T04:39:47.102Z,100922.75
2019-03-11T04:42:17.594Z,100921.41
2019-03-11T04:44:47.746Z,100925.31
2019-03-11T04:47:18.154Z,100932.47
2019-03-11T04:49:48.298Z,100925.63
2019-03-11T04:52:20.258Z,100935.92
2019-03-11T04:54:51.918Z,100924.92
2019-03-11T04:57:23.520Z,100936.27
2019-03-11T04:59:54.798Z,100936.34
2019-03-11T05:02:25.749Z,100944.38
2019-03-11T05:04:57.796Z,100945.23
2019-03-11T05:07:28.959Z,100929.86
2019-03-11T05:09:59.452Z,100937.23
2019-03-11T05:12:30.906Z,100941.36
2019-03-11T05:15:02.623Z,100934.70
2019-03-11T05:17:32.813Z,100938.58
2019-03-11T05:20:03.341Z,100940.42
2019-03-11T05:22:35.438Z,100943.45
2019-03-11T05:25:06.107Z,100941.42
2019-03-11T05:27:37.346Z,100940.77
2019-03-11T05:30:09.380Z,100949.00
2019-03-11T05:32:40.914Z,100954.92
2019-03-11T05:35:11.049Z,100952.66
2019-03-11T05:37:41.291Z,100952.02
2019-03-11T05:40:13.455Z,100955.14
2019-03-11T05:42:44.533Z,100962.47
2019-03-11T05:45:15.679Z,100973.17
2019-03-11T05:47:46.273Z,100980.17
2019-03-11T05:50:16.421Z,100988.53
2019-03-11T05:52:46.671Z,101007.06
2019-03-11T05:55:17.950Z,101009.73
2019-03-11T05:57:48.579Z,101007.36
2019-03-11T06:00:22.831Z,101010.44
2019-03-11T06:02:53.009Z,101006.47
2019-03-11T06:05:24.565Z,100995.45
2019-03-11T06:07:55.209Z,101004.93
2019-03-11T06:10:26.778Z,101004.70
2019-03-11T06:12:56.939Z,101013.48
2019-03-11T06:15:27.093Z,101015.82
2019-03-11T06:17:57.711Z,101011.02
2019-03-11T06:20:33.626Z,101015.45
2019-03-11T06:23:05.037Z,101014.11
2019-03-11T06:25:35.614Z,101019.27
2019-03-11T06:28:07.003Z,101024.09
2019-03-11T06:30:38.639Z,101018.77
2019-03-11T06:33:09.703Z,101025.03
2019-03-11T06:35:40.566Z,101030.98
2019-03-11T06:38:11.562Z,101028.95
2019-03-11T06:40:41.720Z,101026.31
2019-03-11T06:43:11.908Z,101029.00
2019-03-11T06:45:42.072Z,101039.52
2019-03-11T06:48:12.769Z,101028.16
2019-03-11T06:50:42.931Z,101036.33
2019-03-11T06:53:13.071Z,101031.19
2019-03-11T06:55:44.093Z,101029.79
2019-03-11T06:58:14.678Z,101037.19
2019-03-11T07:00:44.903Z,101036.33
2019-03-11T07:03:15.053Z,101044.80
2019-03-11T07:05:45.216Z,101046.42
2019-03-11T07:08:15.441Z,101052.18
2019-03-11T07:10:46.043Z,101059.63
2019-03-11T07:13:16.671Z,101063.61
2019-03-11T07:15:46.864Z,101075.07
2019-03-11T07:18:17.237Z,101065.80
2019-03-11T07:20:47.589Z,101075.01
2019-03-11T07:23:17.809Z,101073.23
2019-03-11T07:25:48.248Z,101087.28
2019-03-11T07:28:18.435Z,101082.49
2019-03-11T07:30:48.631Z,101086.42
2019-03-11T07:33:18.797Z,101093.33
2019-03-11T07:35:48.934Z,101093.85
2019-03-11T07:38:19.258Z,101090.81
2019-03-11T07:40:49.873Z,101089.04
2019-03-11T07:43:19.984Z,101096.90
2019-03-11T07:45:51.392Z,101089.94
2019-03-11T07:48:21.529Z,101096.52
2019-03-11T07:50:51.675Z,101096.95
2019-03-11T07:53:21.959Z,101103.08
2019-03-11T07:55:53.559Z,101114.92
2019-03-11T07:58:23.717Z,101113.08
2019-03-11T08:00:54.396Z,101118.85
2019-03-11T08:03:24.619Z,101116.67
2019-03-11T08:05:56.121Z,101115.79
2019-03-11T08:08:26.826Z,101127.19
2019-03-11T08:10:58.152Z,101138.56
2019-03-11T08:13:29.280Z,101146.02
2019-03-11T08:15:59.460Z,101147.79
2019-03-11T08:18:34.911Z,101154.78
2019-03-11T08:21:02.943Z,101155.65
2019-03-11T08:23:35.792Z,101152.61
2019-03-11T08:26:06.791Z,101166.20
2019-03-11T08:28:37.433Z,101155.22
2019-03-11T08:31:08.418Z,101153.91
2019-03-11T08:33:41.153Z,101164.40
2019-03-11T08:36:12.427Z,101163.38
2019-03-11T08:38:43.031Z,101159.63
2019-03-11T08:41:13.209Z,101167.06
2019-03-11T08:43:43.360Z,101172.30
2019-03-11T08:46:13.570Z,101174.34
2019-03-11T08:48:44.352Z,101178.89
2019-03-11T08:51:14.490Z,101172.33
2019-03-11T08:53:44.667Z,101181.10
2019-03-11T08:56:15.983Z,101187.98
2019-03-11T08:58:46.559Z,101188.05
2019-03-11T09:01:16.732Z,101189.65
2019-03-11T09:03:48.017Z,101193.80
2019-03-11T09:06:18.352Z,101189.93
2019-03-11T09:08:48.991Z,101199.02
2019-03-11T09:11:19.744Z,101203.41
2019-03-11T09:13:49.970Z,101200.15
2019-03-11T09:16:20.605Z,101210.01
2019-03-11T09:18:51.205Z,101214.21
2019-03-11T09:21:22.149Z,101221.39
2019-03-11T09:23:53.802Z,101211.30
2019-03-11T09:26:24.774Z,101217.50
2019-03-11T09:28:55.392Z,101221.84
2019-03-11T09:31:25.536Z,101224.69
2019-03-11T09:33:56.059Z,101223.17
2019-03-11T09:36:26.216Z,101222.75
2019-03-11T09:38:56.374Z,101220.05
2019-03-11T09:41:27.927Z,101218.66
2019-03-11T09:43:59.501Z,101213.09
2019-03-11T09:46:29.917Z,101237.66
2019-03-11T09:49:00.940Z,101217.45
2019-03-11T09:51:35.489Z,101238.48
2019-03-11T09:54:16.684Z,101226.64
2019-03-11T09:56:50.096Z,101226.08
2019-03-11T09:59:21.526Z,101237.13
2019-03-11T10:01:51.660Z,101235.78
2019-03-11T10:04:21.855Z,101243.02
2019-03-11T10:06:52.602Z,101238.41
2019-03-11T10:09:24.296Z,101248.92
2019-03-11T10:11:54.478Z,101246.58
2019-03-11T10:14:24.626Z,101248.23
2019-03-11T10:16:54.802Z,101256.73
2019-03-11T10:19:26.822Z,101256.94
2019-03-11T10:21:57.102Z,101253.86
2019-03-11T10:24:27.983Z,101270.59
2019-03-11T10:26:58.252Z,101260.45
2019-03-11T10:29:28.866Z,101260.42
2019-03-11T10:31:59.070Z,101265.56
2019-03-11T10:34:29.252Z,101249.18
2019-03-11T10:36:59.403Z,101255.17
2019-03-11T10:39:29.591Z,101267.98
2019-03-11T10:42:00.192Z,101264.59
2019-03-11T10:44:31.065Z,101267.61
2019-03-11T10:47:01.594Z,101289.28
2019-03-11T10:49:33.182Z,101294.05
2019-03-11T10:52:03.801Z,101310.61
2019-03-11T10:54:33.970Z,101309.92
2019-03-11T10:57:05.215Z,101305.97
2019-03-11T10:59:35.405Z,101309.97
2019-03-11T11:02:06.318Z,101305.56
2019-03-11T11:04:37.078Z,101311.69
2019-03-11T11:07:07.233Z,101313.09
2019-03-11T11:09:37.389Z,101315.27
2019-03-11T11:12:08.062Z,101316.56
2019-03-11T11:14:38.209Z,101327.02
2019-03-11T11:17:08.450Z,101325.69
2019-03-11T11:19:40.178Z,101338.67
2019-03-11T11:22:10.351Z,101333.08
2019-03-11T11:24:41.296Z,101338.09
2019-03-11T11:27:11.444Z,101336.59
2019-03-11T11:29:43.626Z,101330.16
2019-03-11T11:32:14.218Z,101326.35
2019-03-11T11:34:44.815Z,101320.61
2019-03-11T11:37:16.717Z,101327.27
2019-03-11T11:39:46.873Z,101332.70
2019-03-11T11:42:17.149Z,101334.14
2019-03-11T11:44:47.731Z,101342.05
2019-03-11T11:47:17.879Z,101336.41
2019-03-11T11:49:48.379Z,101338.95
2019-03-11T11:52:18.977Z,101340.41
2019-03-11T11:54:49.129Z,101339.30
2019-03-11T11:57:21.660Z,101331.84
2019-03-11T11:59:54.287Z,101345.16
2019-03-11T12:02:24.234Z,101346.16
2019-03-11T12:04:54.390Z,101353.20
2019-03-11T12:07:24.668Z,101347.44
2019-03-11T12:09:55.219Z,101343.66
2019-03-11T12:12:25.382Z,101356.80
2019-03-11T12:14:55.529Z,101353.27
2019-03-11T12:17:25.779Z,101346.64
2019-03-11T12:19:57.694Z,101357.79
2019-03-11T12:22:28.290Z,101353.67
2019-03-11T12:24:58.447Z,101368.03
2019-03-11T12:27:32.774Z,101340.12
2019-03-11T12:30:03.377Z,101351.88
2019-03-11T12:32:34.521Z,101355.98
2019-03-11T12:35:05.071Z,101361.73
2019-03-11T12:37:35.681Z,101361.27
2019-03-11T12:40:06.969Z,101364.14
2019-03-11T12:42:37.157Z,101360.61
2019-03-11T12:45:08.133Z,101364.04
2019-03-11T12:47:38.321Z,101354.02
2019-03-11T12:50:14.804Z,101376.23
2019-03-11T12:52:45.649Z,101393.44
2019-03-11T12:55:15.800Z,101392.83
2019-03-11T12:57:47.031Z,101392.72
2019-03-11T13:00:18.687Z,101404.36
2019-03-11T13:02:49.038Z,101396.12
2019-03-11T13:05:19.775Z,101401.30
2019-03-11T13:07:50.496Z,101404.65
2019-03-11T13:10:21.980Z,101411.20
2019-03-11T13:12:52.390Z,101420.25
2019-03-11T13:15:23.092Z,101414.80
2019-03-11T13:17:53.355Z,101427.77
2019-03-11T13:20:27.737Z,101431.58
2019-03-11T13:22:57.966Z,101417.77
2019-03-11T13:25:28.221Z,101413.55
2019-03-11T13:27:59.864Z,101418.78
2019-03-11T13:30:30.466Z,101426.86
2019-03-11T13:33:00.627Z,101425.12
2019-03-11T13:35:30.779Z,101427.09
2019-03-11T13:38:00.942Z,101431.52
2019-03-11T13:40:31.089Z,101437.09
2019-03-11T13:43:02.333Z,101434.74
2019-03-11T13:45:35.427Z,101432.61
2019-03-11T13:48:05.581Z,101454.75
2019-03-11T13:50:36.156Z,101445.52
2019-03-11T13:53:06.412Z,101473.40
2019-03-11T13:55:36.592Z,101469.01
2019-03-11T13:58:08.593Z,101467.09
2019-03-11T14:00:39.303Z,101473.57
2019-03-11T14:03:09.798Z,101479.28
2019-03-11T14:05:39.963Z,101472.47
2019-03-11T14:08:10.095Z,101490.84
2019-03-11T14:10:40.799Z,101486.66
2019-03-11T14:13:11.029Z,101488.75
2019-03-11T14:15:44.048Z,101505.15
2019-03-11T14:18:14.233Z,101497.95
2019-03-11T14:20:45.234Z,101480.22
2019-03-11T14:23:16.359Z,101487.58
2019-03-11T14:25:46.532Z,101498.55
2019-03-11T14:28:16.705Z,101467.16
2019-03-11T14:30:48.208Z,101472.09
2019-03-11T14:33:18.455Z,101483.96
2019-03-11T14:35:48.610Z,101484.37
2019-03-11T14:38:20.359Z,101492.64
2019-03-11T14:40:51.083Z,101482.67
2019-03-11T14:43:21.561Z,101497.41
2019-03-11T14:45:51.841Z,101495.28
2019-03-11T14:48:22.596Z,101499.60
2019-03-11T14:50:55.039Z,101505.94
2019-03-11T14:53:26.260Z,101511.55
2019-03-11T14:55:56.895Z,101525.69
2019-03-11T14:58:29.552Z,101523.39
2019-03-11T15:01:04.040Z,101512.80
2019-03-11T15:03:35.922Z,101526.51
2019-03-11T15:06:07.158Z,101527.90
2019-03-11T15:08:37.378Z,101530.64
2019-03-11T15:11:09.218Z,101527.17
2019-03-11T15:13:39.526Z,101523.45
2019-03-11T15:16:09.995Z,101522.14
2019-03-11T15:18:40.171Z,101526.90
2019-03-11T15:21:11.880Z,101530.16
2019-03-11T15:23:42.693Z,101525.38
2019-03-11T15:26:13.030Z,101533.70
2019-03-11T15:28:43.294Z,101527.58
2019-03-11T15:31:13.791Z,101527.09
2019-03-11T15:33:44.010Z,101532.08
2019-03-11T15:36:23.101Z,101524.64
2019-03-11T15:38:53.377Z,101531.52
2019-03-11T15:41:23.529Z,101544.10
2019-03-11T15:43:53.928Z,101540.00
2019-03-11T15:46:24.051Z,101546.52
2019-03-11T15:48:54.227Z,101549.27
2019-03-11T15:51:24.862Z,101550.89
2019-03-11T15:53:55.442Z,101555.87
2019-03-11T15:56:26.098Z,101550.08
2019-03-11T15:58:57.505Z,101554.66
2019-03-11T16:01:27.649Z,101547.38
2019-03-11T16:03:58.897Z,101546.22
2019-03-11T16:06:29.607Z,101550.02
2019-03-11T16:09:02.154Z,101542.96
2019-03-11T16:11:34.352Z,101546.97
2019-03-11T16:14:04.557Z,101547.07
2019-03-11T16:16:35.200Z,101568.99
2019-03-11T16:19:05.367Z,101572.31
2019-03-11T16:21:36.772Z,101570.41
2019-03-11T16:24:06.930Z,101577.98
2019-03-11T16:26:37.083Z,101575.91
2019-03-11T16:29:08.630Z,101581.53
2019-03-11T16:31:39.416Z,101580.86
2019-03-11T16:34:09.561Z,101590.65
2019-03-11T16:36:39.765Z,101606.79
2019-03-11T16:39:10.060Z,101606.04
2019-03-11T16:41:40.402Z,101605.92
2019-03-11T16:44:12.131Z,101614.95
2019-03-11T16:46:42.750Z,101613.10
2019-03-11T16:49:12.918Z,101614.92
2019-03-11T16:51:43.699Z,101614.55
2019-03-11T16:54:13.877Z,101620.16
2019-03-11T16:56:44.027Z,101638.40
2019-03-11T16:59:17.207Z,101632.63
2019-03-11T17:01:48.872Z,101640.23
2019-03-11T17:04:19.140Z,101622.44
2019-03-11T17:06:49.297Z,101625.65
2019-03-11T17:09:19.487Z,101629.66
2019-03-11T17:11:49.760Z,101636.96
2019-03-11T17:14:20.389Z,101643.02
2019-03-11T17:16:50.920Z,101646.05
2019-03-11T17:19:21.282Z,101631.78
2019-03-11T17:21:51.528Z,101644.11
2019-03-11T17:24:21.693Z,101637.94
2019-03-11T17:26:52.180Z,101650.73
2019-03-11T17:29:22.758Z,101649.52
2019-03-11T17:31:52.928Z,101650.36
2019-03-11T17:34:23.639Z,101667.13
2019-03-11T17:36:53.770Z,101663.55
2019-03-11T17:39:23.977Z,101687.65
2019-03-11T17:41:54.612Z,101671.59
2019-03-11T17:44:25.299Z,101679.50
2019-03-11T17:46:55.467Z,101688.27
2019-03-11T17:49:26.208Z,101694.00
2019-03-11T17:51:56.348Z,101699.69
2019-03-11T17:54:26.523Z,101702.73
2019-03-11T17:56:56.723Z,101705.39
2019-03-11T17:59:28.184Z,101723.88
2019-03-11T18:01:58.759Z,101741.09
2019-03-11T18:04:28.951Z,101741.95
2019-03-11T18:06:59.717Z,101746.81
2019-03-11T18:09:30.373Z,101758.23
2019-03-11T18:12:00.595Z,101762.12
2019-03-11T18:14:30.760Z,101767.78
2019-03-11T18:17:01.285Z,101776.55
2019-03-11T18:19:32.405Z,101786.81
2019-03-11T18:22:04.127Z,101788.10
2019-03-11T18:24:34.354Z,101801.18
2019-03-11T18:27:04.530Z,101801.10
2019-03-11T18:29:35.791Z,101804.91
2019-03-11T18:32:06.579Z,101796.05
2019-03-11T18:34:36.724Z,101807.17
2019-03-11T18:37:07.345Z,101823.27
2019-03-11T18:39:38.010Z,101817.95
2019-03-11T18:42:08.176Z,101824.36
2019-03-11T18:44:38.351Z,101806.06
2019-03-11T18:47:09.006Z,101808.81
2019-03-11T18:49:40.388Z,101829.06
2019-03-11T18:52:11.909Z,101818.44
2019-03-11T18:54:42.173Z,101828.11
2019-03-11T18:57:12.319Z,101840.95
2019-03-11T18:59:44.233Z,101836.09
2019-03-11T19:02:14.870Z,101850.67
2019-03-11T19:04:45.034Z,101832.63
2019-03-11T19:07:15.376Z,101844.07
2019-03-11T19:09:45.573Z,101847.61
2019-03-11T19:12:16.808Z,101848.05
2019-03-11T19:14:47.041Z,101853.31
2019-03-11T19:17:18.827Z,101865.66
2019-03-11T19:19:49.012Z,101869.64
2019-03-11T19:22:19.722Z,101880.20
2019-03-11T19:24:50.432Z,101874.03
2019-03-11T19:27:20.614Z,101874.47
2019-03-11T19:29:51.156Z,101874.02
2019-03-11T19:32:21.878Z,101883.31
2019-03-11T19:34:54.738Z,101888.99
2019-03-11T19:37:24.968Z,101891.22
2019-03-11T19:39:55.457Z,101903.12
2019-03-11T19:42:28.141Z,101896.89
2019-03-11T19:44:58.346Z,101908.84
2019-03-11T19:47:28.752Z,101919.42
2019-03-11T19:49:59.429Z,101918.08
2019-03-11T19:52:30.016Z,101929.52
2019-03-11T19:55:00.733Z,101932.20
2019-03-11T19:57:32.588Z,101928.64
2019-03-11T20:00:04.841Z,101938.32
2019-03-11T20:02:35.075Z,101944.97
2019-03-11T20:05:06.134Z,101935.25
2019-03-11T20:07:37.400Z,101935.26
2019-03-11T20:10:08.623Z,101942.30
2019-03-11T20:12:38.857Z,101941.91
2019-03-11T20:15:10.388Z,101957.77
2019-03-11T20:17:41.019Z,101949.38
2019-03-11T20:20:12.307Z,101953.80
2019-03-11T20:22:42.701Z,101963.94
2019-03-11T20:25:15.453Z,101962.92
2019-03-11T20:27:46.496Z,101964.68
2019-03-11T20:30:20.042Z,101965.54
2019-03-11T20:32:50.760Z,101966.09
2019-03-11T20:35:21.047Z,101973.11
2019-03-11T20:37:51.771Z,101974.80
2019-03-11T20:40:24.330Z,101976.69
2019-03-11T20:42:54.614Z,101985.07
2019-03-11T20:45:26.238Z,101990.33
2019-03-11T20:47:57.017Z,101988.16
2019-03-11T20:50:27.270Z,101995.64
2019-03-11T20:52:58.610Z,101993.47
2019-03-11T20:55:29.986Z,102004.00
2019-03-11T20:58:02.882Z,102000.95
2019-03-11T21:00:34.637Z,101993.41
2019-03-11T21:03:05.474Z,101998.70
2019-03-11T21:05:36.719Z,102003.58
2019-03-11T21:08:07.263Z,102005.81
2019-03-11T21:10:38.768Z,101999.17
2019-03-11T21:13:09.736Z,102004.02
2019-03-11T21:15:41.098Z,102004.94
2019-03-11T21:18:11.398Z,102000.05
2019-03-11T21:20:41.563Z,102011.08
2019-03-11T21:23:13.626Z,102014.60
2019-03-11T21:25:44.298Z,102012.34
2019-03-11T21:28:14.514Z,102020.73
2019-03-11T21:30:45.333Z,102025.17
2019-03-11T21:33:15.827Z,102025.63
2019-03-11T21:35:46.491Z,102025.18
2019-03-11T21:38:16.966Z,102030.05
2019-03-11T21:40:47.758Z,102034.88
2019-03-11T21:43:18.300Z,102032.67
2019-03-11T21:45:49.957Z,102040.61
2019-03-11T21:48:20.123Z,102032.19
2019-03-11T21:50:50.351Z,102037.05
2019-03-11T21:53:20.887Z,102042.34
2019-03-11T21:55:54.133Z,102043.23
2019-03-11T21:58:25.047Z,102037.11
2019-03-11T22:00:58.179Z,102044.55
2019-03-11T22:03:30.000Z,102045.91
2019-03-11T22:06:00.968Z,102052.06
2019-03-11T22:08:31.196Z,102050.32
2019-03-11T22:11:02.073Z,102049.84
2019-03-11T22:13:33.097Z,102048.11
2019-03-11T22:16:03.995Z,102054.27
2019-03-11T22:18:35.198Z,102051.63
2019-03-11T22:21:05.712Z,102050.33
2019-03-11T22:23:35.923Z,102052.52
2019-03-11T22:26:06.552Z,102050.78
2019-03-11T22:28:37.246Z,102052.09
2019-03-11T22:31:07.408Z,102064.88
2019-03-11T22:33:37.591Z,102058.68
2019-03-11T22:36:09.467Z,102065.73
2019-03-11T22:38:39.755Z,102067.95
2019-03-11T22:41:10.149Z,102068.36
2019-03-11T22:43:40.403Z,102074.58
2019-03-11T22:46:13.772Z,102069.27
2019-03-11T22:48:45.030Z,102063.09
2019-03-11T22:51:15.338Z,102062.23
2019-03-11T22:53:46.216Z,102058.24
2019-03-11T22:56:16.727Z,102062.66
2019-03-11T22:58:47.760Z,102058.69
2019-03-11T23:01:20.903Z,102056.48
2019-03-11T23:03:52.706Z,102060.02
2019-03-11T23:06:22.941Z,102058.26
2019-03-11T23:08:54.411Z,102052.91
2019-03-11T23:11:24.563Z,102051.59
2019-03-11T23:13:55.261Z,102000.38
2019-03-11T23:16:25.420Z,102064.98
2019-03-11T23:18:56.938Z,102057.78
2019-03-11T23:21:27.134Z,102060.31
2019-03-11T23:24:16.927Z,102060.84
2019-03-11T23:26:55.312Z,102056.48
2019-03-11T23:29:54.445Z,102056.95
2019-03-11T23:32:29.127Z,102054.72
2019-03-11T23:34:59.653Z,102045.91
2019-03-11T23:37:29.810Z,102044.58
2019-03-11T23:40:01.308Z,102046.75
2019-03-11T23:42:32.825Z,102040.04
2019-03-11T23:45:03.051Z,102033.91
2019-03-11T23:47:33.294Z,102039.61
2019-03-11T23:50:04.545Z,102045.00
2019-03-11T23:52:35.041Z,102038.83
2019-03-11T23:55:06.312Z,102036.64
2019-03-11T23:57:36.523Z,102041.39
